Tiempo atmosférico en la estación meteorológica de Reus Aeropuerto, Tarragona (71 m.)



Fecha
DESCASC
Temp. máxima en grados centígrados (hora)
DESCASC
Temp. mínima en grados centígrados (hora)
DESCASC
Temp. media en grados centígrados
DESCASC
Racha de viento máxima en m/sg (hora)
DESCASC
Velocidad máxima media en intervalos de 10 minutos(hora)
DESCASC
Precipitaciones diarias en mm
DESCASC
Precipitaciones de 00:00 a 06:00 en mm
DESCASC
Precipitaciones de 06:00 a 12:00 en mm
DESCASC
Precipitaciones de 12:00 a 18:00 en mm
DESCASC
Precipitaciones de 18:00 a 24:00 en mm
DESCASC
17-02-2019 15.1 (13:40) 1.1 (08:00) 8.1 6.11 (12:50) 4.72 (01:00) 0 0 0 0 0
16-02-2019 17.2 (13:10) 0.9 (05:30) 9.1 5 (13:50) 3.61 (02:40) 0 0 0 0 0
15-02-2019 15.1 (14:20) 2 (04:00) 8.6 5 (05:40) 3.89 (05:40) 0 0 0 0 0
14-02-2019 14.8 (13:30) 2.9 (00:00) 8.9 -- (--) -- (--) 0 0 0 0 0
13-02-2019 15.5 (13:50) 0.6 (00:00) 8.1 7.78 (13:50) 4.17 (08:50) 0 0 0 0 0
12-02-2019 17 (15:10) 1.4 (00:00) 9.2 11.67 (03:20) 6.11 (17:00) 0 0 0 0 0
11-02-2019 17.1 (15:20) 7 (00:00) 12.1 20 (03:50) 14.72 (03:50) 0 0 0 0 0
10-02-2019 19.7 (16:20) 2.8 (00:00) 11.3 13.89 (15:20) 9.72 (15:30) 0 0 0 0 0
09-02-2019 16.9 (13:40) 4.1 (00:00) 10.5 6.11 (14:20) 3.89 (14:00) 0 0 0 0 0
08-02-2019 16 (13:10) 3 (00:00) 9.5 8.33 (14:20) 6.11 (15:30) 0 0 0 0 0
07-02-2019 16.4 (14:10) 3.5 (00:00) 9.9 5 (13:10) 3.61 (15:10) 0 0 0 0 0
06-02-2019 17.4 (14:10) 3.3 (06:40) 10.3 5.83 (02:10) 4.17 (16:40) 0 0 0 0 0
05-02-2019 19.1 (16:10) 3.8 (08:20) 11.5 9.17 (11:40) 6.39 (11:40) 0 0 0 0 0
04-02-2019 14 (14:40) 3.6 (00:00) 8.8 16.39 (02:50) 10.28 (02:50) 0 0 0 0 0
03-02-2019 12.8 (15:30) 4.6 (00:00) 8.7 16.94 (13:50) 11.11 (13:20) 0 0 0 0 0
02-02-2019 12.4 (14:40) 5.9 (00:00) 9.1 21.67 (17:10) 15.83 (17:00) 0 0 0 0 0
01-02-2019 16.9 (13:10) 8 (00:00) 12.4 18.89 (22:10) 13.33 (22:10) 1.3 0 0.7 0 0.6
31-01-2019 18.2 (16:30) 3.3 (00:00) 10.8 9.17 (01:10) 6.39 (01:20) 0 0 0 0 0
30-01-2019 13.6 (14:40) 3.6 (00:00) 8.6 23.33 (00:50) 15.28 (02:50) 0 0 0 0 0
29-01-2019 11.1 (16:00) 5.9 (00:00) 8.5 24.17 (23:50) 15.83 (23:50) 0.7 0 0 0.4 0.3
28-01-2019 15.7 (13:40) 7.1 (00:00) 11.4 24.17 (09:30) 16.39 (09:30) 0 0 0 0 0
27-01-2019 15.9 (14:10) 3.9 (00:00) 9.9 25.83 (13:10) 18.06 (13:00) 0 0 0 0 0
26-01-2019 17.6 (14:10) 3.8 (00:00) 10.7 18.06 (04:20) 11.94 (04:00) 0 0 0 0 0
25-01-2019 -- (--) -- (--) -- -- (--) -- (--) -- 0 0 -- 0
24-01-2019 12.4 (14:10) 4.1 (00:00) 8.2 22.78 (15:20) 15 (15:20) 0 0 0 0 0
23-01-2019 13.7 (15:00) 6.7 (00:00) 10.2 25.28 (12:00) 15.28 (12:10) 0 0 0 0 0
22-01-2019 11.9 (13:30) 0.8 (00:00) 6.3 14.44 (00:10) 10.28 (00:30) 0 0 0 0 0
21-01-2019 13.1 (15:20) 2.8 (00:00) 8 11.67 (21:20) 8.06 (21:20) 0 0 0 0 0
20-01-2019 10.5 (15:40) 3.7 (00:00) 7.1 8.89 (13:20) 5.83 (12:20) 1.5 1.5 0 0 0
19-01-2019 12.5 (15:10) 0.6 (00:00) 6.6 7.22 (09:30) 5.56 (17:00) 0 0 0 0 0

Gráficas

Temp. máximas Temp. mínimas Temp. medias Precipitaciones Rachas de viento máximas Velocidades máximas media en intervalos de 10 minutos

Datos horarios

Fecha y hora oficial Temperatura (ºC) Velocidad del viento (km/h) Dirección del viento Racha (km/h) Dirección de racha Precipitación (mm) Presión (hPa) Tendencia (hPa) Humedad (%)
2019-02-17 23:00:00 7.4 9 Norte 13 Noroeste 0 1016.3 0.2 90
2019-02-17 22:00:00 8.1 10 Norte 13 Norte 0 1016.3 0.6 89
2019-02-17 21:00:00 8.8 9 Norte -- -- 0 1016.1 0.7 86
2019-02-17 20:00:00 -- -- -- -- -- 0 1016.1 0.5 --
2019-02-17 19:00:00 9.8 4 Sur 11 Sur 0 1015.7 -0.5 90
2019-02-17 18:00:00 12.1 9 Sur 11 Sur 0 1015.4 -1.1 78
2019-02-17 17:00:00 13.8 7 Sur 17 Sudoeste 0 1015.6 -1.3 71
2019-02-17 16:00:00 13.8 12 Sur 18 Sur 0 1016.2 -1.5 71
2019-02-17 15:00:00 14.6 12 Sudeste 21 Sudeste 0 1016.5 -1.8 65
2019-02-17 14:00:00 14.8 13 Sur 22 Sur 0 1016.9 -1.6 62
2019-02-17 13:00:00 14.6 12 Sudeste 22 Sur 0 1017.7 -0.9 62
2019-02-17 12:00:00 14.4 9 Sudeste 15 Sudeste 0 1018.3 -0.5 53
2019-02-17 11:00:00 12.8 3 Este 11 Nordeste 0 1018.5 -0.1 63
2019-02-17 10:00:00 10.1 9 Norte 15 Nordeste 0 1018.6 0 52
2019-02-17 09:00:00 3.7 10 Norte 13 Norte 0 1018.8 0.2 70
2019-02-17 08:00:00 1.1 5 Norte 9 Norte 0 1018.6 0.1 68
2019-02-17 07:00:00 2.3 8 Norte 17 Norte 0 1018.6 -0.1 70
2019-02-17 06:00:00 4 15 Norte 21 Norte 0 1018.6 -0.2 55
2019-02-17 05:00:00 3.9 9 Norte 17 Norte 0 1018.5 -0.6 50
2019-02-17 04:00:00 2.4 13 Norte 17 Norte 0 1018.7 -0.6 50
2019-02-17 03:00:00 2.4 11 Norte 15 Norte 0 1018.8 -0.8 49
2019-02-17 02:00:00 3 9 Norte 21 Norte 0 1019.1 -0.8 48
2019-02-17 01:00:00 3.7 17 Norte 21 Norte 0 1019.3 -0.6 49
2019-02-17 00:00:00 2.5 8 Norte 11 Norte 0 1019.6 0 56
2019-02-16 23:00:00 3.5 8 Norte 11 Norte 0 1019.9 0.3 53
2019-02-16 22:00:00 3.8 9 Norte 13 Norte 0 1019.9 0.3 61
2019-02-16 21:00:00 4.9 12 Norte 13 Norte 0 1019.6 0.3 70
2019-02-16 20:00:00 6.4 7 Norte 9 Norte 0 1019.6 0 74
2019-02-16 19:00:00 10.2 0 Calma -- -- 0 1019.6 -0.2 68
2019-02-16 18:00:00 13.3 2 Sur 15 Sudeste 0 1019.3 -0.9 59
2019-02-16 17:00:00 15 10 Sur 15 Sur 0 1019.6 -1.2 46
2019-02-16 16:00:00 16.2 10 Sur 15 Sur 0 1019.8 -1.6 47
2019-02-16 15:00:00 16.8 9 Sur 18 Sur 0 1020.2 -1.6 41
2019-02-16 14:00:00 16.7 10 Sur 18 Sur 0 1020.8 -1 40
2019-02-16 13:00:00 16.9 7 Sur 13 Sur 0 1021.4 -0.1 33
2019-02-16 12:00:00 16.6 5 Sur 11 Sur 0 1021.8 0.6 28
2019-02-16 11:00:00 14.7 4 Este 13 Nordeste 0 1021.8 1 33
2019-02-16 10:00:00 11.8 8 Nordeste 11 Nordeste 0 1021.5 1.1 47
2019-02-16 09:00:00 5.3 5 Norte 13 Norte 0 1021.2 1 63
2019-02-16 08:00:00 1.6 10 Norte 15 Norte 0 1020.8 0.9 72
2019-02-16 07:00:00 1.8 13 Norte 15 Nordeste 0 1020.4 0.2 71
2019-02-16 06:00:00 1.7 7 Norte 15 Norte 0 1020.2 -0.3 75
2019-02-16 05:00:00 1.8 13 Norte 15 Norte 0 1019.9 -0.7 77
2019-02-16 04:00:00 1.6 8 Norte 15 Norte 0 1020.2 -0.5 82
2019-02-16 03:00:00 2.4 12 Norte 15 Norte 0 1020.5 -0.3 77
2019-02-16 02:00:00 2.6 8 Norte 11 Norte 0 1020.6 -0.1 82
2019-02-16 01:00:00 2.9 6 Noroeste 13 Noroeste 0 1020.7 0 88
2019-02-16 00:00:00 3.3 8 Norte 13 Norte 0 1020.8 0.1 92
2019-02-15 23:00:00 4.1 10 Norte 13 Norte 0 1020.7 0.1 91
2019-02-15 22:00:00 5.4 12 Norte 13 Norte 0 1020.7 0.3 92
2019-02-15 21:00:00 6 10 Noroeste 13 Norte 0 1020.7 0.9 91
2019-02-15 20:00:00 8 5 Oeste -- -- 0 1020.6 0.7 86
2019-02-15 19:00:00 9.1 4 Sudoeste 11 Sur 0 1020.4 0.2 85
2019-02-15 18:00:00 11.9 9 Sudoeste 13 Sudoeste 0 1019.8 -0.8 71
2019-02-15 17:00:00 13.6 8 Sur 15 Sur 0 1019.9 -1.2 64
2019-02-15 16:00:00 14.4 9 Sur 15 Sur 0 1020.2 -1.9 60
2019-02-15 15:00:00 14.4 11 Sur 18 Sur 0 1020.6 -2.3 59
2019-02-15 14:00:00 14.6 9 Sudoeste 18 Sur 0 1021.1 -1.7 58
2019-02-15 13:00:00 14.1 8 Sur 17 Sur 0 1022.1 -0.5 61
2019-02-15 12:00:00 13.1 7 Oeste 15 Oeste 0 1022.9 0.2 63
2019-02-15 11:00:00 11.4 6 Sudoeste 13 Sudoeste 0 1022.8 0.6 69
2019-02-15 10:00:00 9.6 9 Nordeste 13 Norte 0 1022.6 0.6 74
2019-02-15 09:00:00 4.9 9 Nordeste 13 Nordeste 0 1022.7 1 87
2019-02-15 08:00:00 3.7 9 Norte 13 Norte 0 1022.2 0.3 93
2019-02-15 07:00:00 2.5 8 Norte 17 Norte 0 1022 0.1 92
2019-02-15 06:00:00 5.8 14 Norte 18 Norte 0 1021.7 -0.7 87
2019-02-15 05:00:00 2.8 10 Nordeste 17 Norte 0 1021.9 -0.7 90
2019-02-15 04:00:00 2 7 Nordeste 11 Norte 0 1021.9 -0.9 94
2019-02-15 03:00:00 2.7 9 Norte 13 Norte 0 1022.4 -0.6 92
2019-02-15 02:00:00 3.6 10 Norte 15 Norte 0 1022.6 -0.7 91
2019-02-15 01:00:00 3.8 10 Norte 13 Norte 0 1022.8 -0.4 91
2019-02-15 00:00:00 3.8 8 Norte 15 Norte 0 1023 -0.2 92
2019-02-14 23:00:00 3.6 9 Norte 13 Noroeste 0 1023.3 0 94
2019-02-14 22:00:00 5.4 11 Noroeste -- -- 0 1023.2 -0.2 91
2019-02-14 21:00:00 6.1 -- -- -- -- 0 1023.2 0 89
2019-02-14 20:00:00 7.2 6 Noroeste -- -- 0 1023.3 -0.2 83
2019-02-14 19:00:00 9.1 5 Sudoeste 9 Sur 0 1023.4 -0.4 79
2019-02-14 18:00:00 11.9 9 Sur 15 Sur 0 1023.2 -1.1 69
2019-02-14 17:00:00 13.5 10 Sur 17 Sur 0 1023.5 -1.5 61
2019-02-14 16:00:00 13.9 10 Sur 24 Sudoeste 0 1023.8 -2.1 58
2019-02-14 15:00:00 14.3 13 Sur 22 Sur 0 1024.3 -2.2 59
2019-02-14 14:00:00 14.5 10 Sur 18 Sur 0 1025 -1.6 60
2019-02-14 13:00:00 14.2 12 Sur 21 Sur 0 1025.9 -0.5 61
2019-02-14 12:00:00 13.8 6 Oeste 13 Sur 0 1026.5 0.2 63
2019-02-14 11:00:00 12.5 2 Sudoeste 11 Norte 0 1026.6 0.7 68
2019-02-14 10:00:00 10.2 11 Norte 18 Norte 0 1026.4 0.5 76
2019-02-14 09:00:00 7 11 Norte 15 Norte 0 1026.3 0.5 89
2019-02-14 08:00:00 5.9 13 Norte 17 Norte 0 1025.9 0.5 91
2019-02-14 07:00:00 6.2 12 Norte 17 Norte 0 1025.9 0.4 91
2019-02-14 06:00:00 5 9 Norte 15 Norte 0 1025.8 0.2 93
2019-02-14 05:00:00 6 13 Norte 17 Norte 0 1025.4 0.1 92
2019-02-14 04:00:00 6 12 Norte 17 Norte 0 1025.5 0.3 92
2019-02-14 03:00:00 5 9 Norte 15 Norte 0 1025.6 0.6 93
2019-02-14 02:00:00 6.4 11 Norte 15 Norte 0 1025.3 0.6 91
2019-02-14 01:00:00 6.3 12 Norte -- -- 0 1025.2 0.7 92
2019-02-14 00:00:00 6.3 13 Norte 17 Norte 0 1025 0.7 93
2019-02-13 23:00:00 -- 11 Norte 13 Norte 0 1024.7 0.7 --
2019-02-13 22:00:00 7.3 8 Norte 13 Norte 0 1024.5 0.6 93
2019-02-13 21:00:00 8 8 Norte 15 Norte 0 1024.3 0.7 93
2019-02-13 20:00:00 7.7 10 Norte -- -- 0 1024 0.7 92
2019-02-13 19:00:00 9.8 7 Este 11 Nordeste 0 1023.9 0.5 89
2019-02-13 18:00:00 11.9 8 Sudeste 15 Sur 0 1023.6 0.1 80
2019-02-13 17:00:00 13.8 9 Sur 17 Sur 0 1023.3 -0.3 71
2019-02-13 16:00:00 14.2 11 Sur 22 Sur 0 1023.4 -0.5 70
2019-02-13 15:00:00 14.3 13 Sudeste 22 Sur 0 1023.5 -0.5 68
2019-02-13 14:00:00 14.5 9 Sur 28 Sur 0 1023.6 -0.2 67
2019-02-13 13:00:00 14.6 12 Sur 22 Sur 0 1023.9 0.5 66
2019-02-13 12:00:00 14.1 11 Sur 21 Sudeste 0 1024 1.1 62
2019-02-13 11:00:00 12.7 6 Sudeste 13 Este 0 1023.8 1.4 63
2019-02-13 10:00:00 9.4 9 Norte 17 Nordeste 0 1023.4 1.7 59
2019-02-13 09:00:00 5.3 15 Norte 21 Norte 0 1022.9 1.5 67
2019-02-13 08:00:00 1.7 7 Norte 11 Norte 0 1022.4 1.1 83
2019-02-13 07:00:00 2.3 12 Norte 17 Norte 0 1021.7 0.3 82
2019-02-13 06:00:00 0.9 6 Nordeste 11 Norte 0 1021.4 -0.3 85
2019-02-13 05:00:00 1.4 8 Nordeste 11 Norte 0 1021.3 -0.9 88
2019-02-13 04:00:00 2.8 13 Norte 15 Norte 0 1021.4 -1.2 85
2019-02-13 03:00:00 2.4 9 Norte 11 Norte 0 1021.7 -1 84
2019-02-13 02:00:00 3.4 8 Norte 15 Norte 0 1022.2 -0.7 77
2019-02-13 01:00:00 4.2 13 Nordeste 17 Nordeste 0 1022.6 -0.1 72
2019-02-13 00:00:00 4.2 13 Nordeste 17 Norte 0 1022.7 0.3 76
2019-02-12 23:00:00 5.7 13 Norte 17 Norte 0 1022.9 0.6 73
2019-02-12 22:00:00 6.4 10 Norte 18 Norte 0 1022.7 0.6 76
2019-02-12 21:00:00 7.1 4 Norte 9 Norte 0 1022.4 0.7 82
2019-02-12 20:00:00 8 4 Oeste 15 Oeste 0 1022.3 0.6 85
2019-02-12 19:00:00 10 9 Oeste 21 Sudoeste 0 1022.1 0.5 78
2019-02-12 18:00:00 12.4 16 Sudoeste 28 Sudoeste 0 1021.7 -0.2 64
2019-02-12 17:00:00 14 22 Sur 28 Sur 0 1021.7 -0.8 56
2019-02-12 16:00:00 15.2 19 Sur 30 Sur 0 1021.6 -1.7 50
2019-02-12 15:00:00 16.7 5 Oeste 24 Oeste 0 1021.9 -2 39
2019-02-12 14:00:00 16 11 Oeste 22 Oeste 0 1022.5 -1.1 41
2019-02-12 13:00:00 15.2 12 Sudoeste 21 Oeste 0 1023.3 -0.2 44
2019-02-12 12:00:00 14 6 Este 15 Este 0 1023.9 0.7 46
2019-02-12 11:00:00 11.9 8 Sudeste 13 Sudeste 0 1023.6 1.6 53
2019-02-12 10:00:00 8.5 4 Oeste 8 Oeste 0 1023.5 1.5 66
2019-02-12 09:00:00 5.2 4 Norte 13 Nordeste 0 1023.2 1.5 78
2019-02-12 08:00:00 1.9 5 Nordeste 17 Norte 0 1022 0.1 85
2019-02-12 07:00:00 1.9 9 Noroeste 13 Noroeste 0 1022 0.8 85
2019-02-12 06:00:00 3.4 8 Norte 13 Norte 0 1021.7 0.1 80
2019-02-12 05:00:00 2.9 0 Calma 17 Nordeste 0 1021.9 -0.1 84
2019-02-12 04:00:00 5.3 15 Norte 42 Nordeste 0 1021.2 -0.2 76
2019-02-12 03:00:00 5.1 9 Noroeste 17 Noroeste 0 1021.6 0.4 79
2019-02-12 02:00:00 5.2 4 Norte 17 Oeste 0 1022 1.4 79
2019-02-12 01:00:00 8.1 12 Oeste 22 Oeste 0 1021.4 2.5 70
2019-02-12 00:00:00 8.6 8 Noroeste 17 Noroeste 0 1021.2 2.4 67
2019-02-11 23:00:00 8.8 8 Nordeste 42 Noroeste 0 1020.6 2 65
2019-02-11 22:00:00 11.1 27 Noroeste 46 Noroeste 0 1018.9 1 58
2019-02-11 21:00:00 11.3 19 Noroeste 28 Oeste 0 1018.8 1.9 58
2019-02-11 20:00:00 10 3 Noroeste 21 Oeste 0 1018.6 2 59
2019-02-11 19:00:00 12.5 7 Noroeste 18 Noroeste 0 1017.9 1.7 50
2019-02-11 18:00:00 15.1 13 Oeste 26 Oeste 0 1016.9 0.7 42
2019-02-11 17:00:00 16.2 18 Noroeste 28 Oeste 0 1016.6 -0.1 40
2019-02-11 16:00:00 16.8 15 Noroeste 32 Noroeste 0 1016.2 -1.1 39
2019-02-11 15:00:00 16.7 17 Oeste 37 Oeste 0 1016.2 -1 41
2019-02-11 14:00:00 15.6 5 Noroeste 26 Oeste 0 1016.7 -0.2 41
2019-02-11 13:00:00 14.6 25 Oeste 37 Oeste 0 1017.3 0.6 47
2019-02-11 12:00:00 13.3 28 Oeste 46 Oeste 0 1017.2 1.4 51
2019-02-11 11:00:00 12 21 Oeste 32 Oeste 0 1016.9 2.2 53
2019-02-11 10:00:00 10.8 12 Noroeste 33 Oeste 0 1016.7 3 56
2019-02-11 09:00:00 8.9 21 Oeste 30 Oeste 0 1015.8 3.3 61
2019-02-11 08:00:00 8.4 16 Oeste 30 Oeste 0 1014.7 3 59
2019-02-11 07:00:00 9.1 17 Oeste 41 Oeste 0 1013.7 2.3 55
2019-02-11 06:00:00 9.3 26 Oeste 67 Oeste 0 1012.5 0.7 57
2019-02-11 05:00:00 9.7 45 Noroeste 67 Noroeste 0 1011.7 -0.6 58
2019-02-11 04:00:00 10 47 Noroeste 72 Noroeste 0 1011.4 -0.4 62
2019-02-11 03:00:00 10.3 34 Oeste 54 Oeste 0 1011.8 0.4 63
2019-02-11 02:00:00 11.1 30 Oeste 48 Oeste 0 1012.3 1.5 64
2019-02-11 01:00:00 12.1 32 Oeste 52 Oeste 0 1011.8 1.9 64
2019-02-11 00:00:00 12.4 24 Sudoeste 35 Sudoeste 0 1011.4 2 66
2019-02-10 23:00:00 13.3 15 Sudoeste 33 Oeste 0 1010.8 2.3 62
2019-02-10 22:00:00 12.8 10 Sudoeste 15 Sur 0 1009.9 1.8 69
2019-02-10 21:00:00 12 5 Norte 11 Norte 0 1009.4 1.6 73
2019-02-10 20:00:00 11.3 0 Calma 13 Sur 0 1008.5 1.4 79
2019-02-10 19:00:00 12 8 Sur 17 Sudoeste 0 1008.1 1.4 78
2019-02-10 18:00:00 14.2 15 Sur 30 Sur 0 1007.8 1.2 71
2019-02-10 17:00:00 18.9 23 Oeste 48 Oeste 0 1007.1 -0.4 47
2019-02-10 16:00:00 19.4 23 Oeste 50 Oeste 0 1006.7 -1.8 44
2019-02-10 15:00:00 18.1 16 Oeste 33 Oeste 0 1006.6 -2.6 45
2019-02-10 14:00:00 15.4 10 Sudoeste 32 Sudoeste 0 1007.5 -1.7 50
2019-02-10 13:00:00 15.6 23 Oeste 41 Oeste 0 1008.5 -0.7 48
2019-02-10 12:00:00 16.4 29 Oeste 48 Oeste 0 1009.2 0.2 46
2019-02-10 11:00:00 16.7 24 Oeste 46 Oeste 0 1009.2 0.6 46
2019-02-10 10:00:00 14.8 26 Sudoeste 37 Oeste 0 1009.2 0.7 54
2019-02-10 09:00:00 10.3 23 Oeste 39 Oeste 0 1009 0.2 67
2019-02-10 08:00:00 3.6 7 Norte 15 Noroeste 0 1008.6 -0.6 96
2019-02-10 07:00:00 4.3 13 Norte 17 Norte 0 1008.5 -1.1 97
2019-02-10 06:00:00 3.2 9 Nordeste 13 Norte 0 1008.8 -1.5 97
2019-02-10 05:00:00 3.4 6 Norte 11 Norte 0 1009.2 -1.6 94
2019-02-10 04:00:00 3.3 5 Norte 11 Norte 0 1009.6 -1.6 94
2019-02-10 03:00:00 4.5 6 Norte 9 Norte 0 1010.3 -1.5 93
2019-02-10 02:00:00 5.5 6 Norte 17 Norte 0 1010.8 -1.2 97
2019-02-10 01:00:00 6.1 11 Norte 13 Norte 0 1011.2 -0.9 98
2019-02-10 00:00:00 6.4 11 Norte 13 Norte 0 1011.8 -0.5 98
2019-02-09 23:00:00 6.2 10 Norte -- -- 0 1012 -0.2 93
2019-02-09 22:00:00 6.9 9 Norte 11 Norte 0 1012.1 0 93
2019-02-09 21:00:00 7.5 6 Noroeste 11 Norte 0 1012.3 0.4 93
2019-02-09 20:00:00 8.9 3 Norte 5 Norte 0 1012.2 0.1 95
2019-02-09 19:00:00 10.5 4 Oeste 11 Sur 0 1012.1 -0.1 92
2019-02-09 18:00:00 12.9 8 Sur 13 Sur 0 1011.9 -0.5 79
2019-02-09 17:00:00 14.7 10 Sur 18 Sudeste 0 1012.1 -0.8 70
2019-02-09 16:00:00 16.3 12 Sudeste 17 Sudeste 0 1012.2 -1.5 58
2019-02-09 15:00:00 16.2 12 Sur 22 Sur 0 1012.4 -1.8 58
2019-02-09 14:00:00 16.6 14 Sur 21 Sur 0 1012.9 -1.2 58
2019-02-09 13:00:00 15.7 3 Nordeste 13 Sur 0 1013.7 -0.2 57
2019-02-09 12:00:00 14.3 8 Sudeste 15 Sudeste 0 1014.2 1.2 66
2019-02-09 11:00:00 11.4 5 Sur 9 Sudeste 0 1014.1 2.1 90
2019-02-09 10:00:00 9.3 0 Calma 8 Norte 0 1013.9 2.6 91
2019-02-09 09:00:00 6.7 5 Nordeste 13 Nordeste 0 1013 1.8 94
2019-02-09 08:00:00 5.1 9 Norte 15 Este 0 1012 1.4 97
2019-02-09 07:00:00 5.7 9 Norte 15 Noroeste 0 1011.3 0.4 98
2019-02-09 06:00:00 4.5 6 Norte 13 Noroeste 0 1011.2 0.3 97
2019-02-09 05:00:00 4.7 6 Norte 13 Nordeste 0 1010.6 -0.4 98
2019-02-09 04:00:00 4.6 3 Este 13 Norte 0 1010.9 -0.5 97
2019-02-09 03:00:00 5.9 10 Norte 18 Norte 0 1010.9 -0.9 98
2019-02-09 02:00:00 5.8 6 Norte 13 Norte 0 1011 -0.9 96
2019-02-09 01:00:00 6.3 8 Norte 9 Norte 0 1011.4 0 96
2019-02-09 00:00:00 7.5 9 Norte 13 Norte 0 1011.8 0.4 95
2019-02-08 23:00:00 9.4 9 Norte 11 Norte 0 1011.9 0.5 94
2019-02-08 22:00:00 11.4 4 Nordeste 9 Sudeste 0 1011.4 0.1 91
2019-02-08 21:00:00 12 4 Sur 11 Sur 0 1011.4 0.3 93
2019-02-08 20:00:00 12.2 8 Sudoeste 11 Sudoeste 0 1011.4 0 91
2019-02-08 19:00:00 12.2 9 Sudoeste 18 Sur 0 1011.3 -0.2 91
2019-02-08 18:00:00 12.5 14 Sur 22 Sudoeste 0 1011.1 -0.6 89
2019-02-08 17:00:00 13.9 17 Sur 24 Sur 0 1011.4 -1 77
2019-02-08 16:00:00 14.7 15 Sudoeste 30 Sudoeste 0 1011.5 -1.7 73
2019-02-08 15:00:00 15.2 18 Sur 30 Sur 0 1011.7 -2.1 71
2019-02-08 14:00:00 15.2 16 Sudoeste 26 Sudoeste 0 1012.4 -1.8 67
2019-02-08 13:00:00 15.6 14 Sur 22 Sur 0 1013.2 -1.1 57
2019-02-08 12:00:00 15 10 Sur 17 Sur 0 1013.8 -0.5 58
2019-02-08 11:00:00 12.8 0 Calma 8 Norte 0 1014.2 0.4 65
2019-02-08 10:00:00 9.8 6 Norte 15 Norte 0 1014.3 0.6 75
2019-02-08 09:00:00 6 10 Norte 15 Norte 0 1014.3 0.7 90
2019-02-08 08:00:00 3.4 5 Norte 9 Norte 0 1013.8 0.1 95
2019-02-08 07:00:00 3.9 6 Norte 15 Norte 0 1013.7 -0.4 95
2019-02-08 06:00:00 4.2 8 Norte 15 Sudeste 0 1013.6 -0.8 98
2019-02-08 05:00:00 4.9 8 Nordeste 13 Nordeste 0 1013.7 -1 97
2019-02-08 04:00:00 5.5 6 Norte 11 Norte 0 1014.1 -0.8 94
2019-02-08 03:00:00 5.1 4 Norte 9 Nordeste 0 1014.4 -0.5 96
2019-02-08 02:00:00 6.5 10 Norte 15 Norte 0 1014.7 0 97
2019-02-08 01:00:00 6.8 10 Norte 13 Norte 0 1014.9 0.5 98
2019-02-08 00:00:00 6.9 8 Nordeste 11 Este 0 1014.9 1.3 95
2019-02-07 23:00:00 8.4 4 Norte 9 Noroeste 0 1014.7 1.4 96
2019-02-07 22:00:00 8.9 8 Noroeste 13 Norte 0 1014.4 1.4 94
2019-02-07 21:00:00 8.5 8 Norte 9 Norte 0 1013.6 1.6 96
2019-02-07 20:00:00 10.1 4 Noroeste -- -- 0 1013.3 1.7 95
2019-02-07 19:00:00 10.3 5 Sudoeste 11 Sur 0 1013 1.6 95
2019-02-07 18:00:00 12.3 8 Sudeste 15 Sudeste 0 1012 0.5 83
2019-02-07 17:00:00 14 12 Sudeste 18 Este 0 1011.6 0 71
2019-02-07 16:00:00 14.7 13 Sudeste 18 Sudeste 0 1011.4 -0.8 74
2019-02-07 15:00:00 15.2 12 Sudeste 18 Sudeste 0 1011.5 -1.2 70
2019-02-07 14:00:00 16.2 12 Sudeste 18 Sudeste 0 1011.6 -1.2 59
2019-02-07 13:00:00 15.5 10 Sudeste 15 Sur 0 1012.2 -0.3 63
2019-02-07 12:00:00 13.8 9 Sudeste 13 Sudeste 0 1012.7 0.8 71
2019-02-07 11:00:00 11.4 3 Sur 8 Sur 0 1012.8 1.6 80
2019-02-07 10:00:00 8.6 4 Sur 9 Nordeste 0 1012.5 1.3 90
2019-02-07 09:00:00 6.2 4 Norte 15 Norte 0 1011.9 0.7 94
2019-02-07 08:00:00 4.4 10 Norte 13 Norte 0 1011.2 -0.1 98
2019-02-07 07:00:00 4.2 3 Norte 11 Norte 0 1011.2 -0.5 96
2019-02-07 06:00:00 3.9 4 Norte 8 Norte 0 1011.2 -0.7 95
2019-02-07 05:00:00 4.4 6 Nordeste -- -- 0 1011.3 -0.8 93
2019-02-07 04:00:00 5.1 12 Norte 15 Nordeste 0 1011.7 -0.8 94
2019-02-07 03:00:00 4.7 5 Nordeste 11 Norte 0 1011.9 -0.7 94
2019-02-07 02:00:00 5.6 4 Norte 11 Nordeste 0 1012.1 -0.7 94
2019-02-07 01:00:00 6.6 4 Nordeste 15 Norte 0 1012.5 -0.6 90
2019-02-07 00:00:00 7.2 8 Norte 18 Norte 0 1012.6 -0.6 90
2019-02-06 23:00:00 8.6 14 Norte 18 Norte 0 1012.8 -0.5 87
2019-02-06 22:00:00 8.1 13 Norte 17 Norte 0 1013.1 0 93
2019-02-06 21:00:00 7.8 4 Norte 9 Norte 0 1013.2 0.5 92
2019-02-06 20:00:00 9.2 4 Norte 8 Norte 0 1013.3 0.4 89
2019-02-06 19:00:00 11.8 4 Oeste 15 Sudoeste 0 1013.1 -0.1 82
2019-02-06 18:00:00 13.9 13 Sudoeste 21 Sudoeste 0 1012.7 -0.8 69
2019-02-06 17:00:00 15.5 12 Sur 21 Sur 0 1012.9 -1.5 67
2019-02-06 16:00:00 15.7 10 Sudeste 18 Sudeste 0 1013.2 -2 71
2019-02-06 15:00:00 17.1 11 Sudeste 17 Sur 0 1013.5 -2.5 59
2019-02-06 14:00:00 17 7 Sur 18 Sur 0 1014.4 -2 59
2019-02-06 13:00:00 16.6 10 Sur 15 Sur 0 1015.2 -1.3 60
2019-02-06 12:00:00 16.3 0 Calma 11 Este 0 1016 -0.4 60
2019-02-06 11:00:00 14.7 3 Sudoeste 13 Sudoeste 0 1016.4 0.4 67
2019-02-06 10:00:00 11.6 3 Sudeste 5 Sur 0 1016.5 0.8 86
2019-02-06 09:00:00 6.1 5 Noroeste 9 Norte 0 1016.4 0.6 98
2019-02-06 08:00:00 4.8 5 Norte 11 Noroeste 0 1016 0.1 99
2019-02-06 07:00:00 4.4 7 Norte 9 Nordeste 0 1015.7 -0.7 99
2019-02-06 06:00:00 4.5 6 Nordeste 13 Oeste 0 1015.8 -0.9 97
2019-02-06 05:00:00 6.1 8 Norte 11 Sudoeste 0 1015.9 -0.7 94
2019-02-06 04:00:00 5.6 6 Norte 11 Norte 0 1016.4 -0.2 97
2019-02-06 03:00:00 6.3 6 Noroeste 21 Norte 0 1016.7 0 94
2019-02-06 02:00:00 6.8 10 Norte 17 Norte 0 1016.6 0 94
2019-02-06 01:00:00 7.5 6 Norte 15 Norte 0 1016.6 0.1 93
2019-02-06 00:00:00 7.7 11 Norte 15 Norte 0 1016.7 0.5 94
2019-02-05 23:00:00 8.4 10 Norte 17 Norte 0 1016.6 0.4 93
2019-02-05 22:00:00 9.2 14 Norte 17 Norte 0 1016.5 0.8 93
2019-02-05 21:00:00 8.9 11 Norte 13 Norte 0 1016.2 1 94
2019-02-05 20:00:00 10.2 6 Nordeste 17 Oeste 0 1016.2 1.1 84
2019-02-05 19:00:00 11.8 15 Sudoeste 21 Oeste 0 1015.7 0.8 79
2019-02-05 18:00:00 14.5 11 Sur 21 Sur 0 1015.2 0.2 73
2019-02-05 17:00:00 16.1 14 Sudeste 22 Oeste 0 1015.1 -0.3 69
2019-02-05 16:00:00 18.8 16 Oeste 33 Oeste 0 1014.9 -1.4 49
2019-02-05 15:00:00 18.7 16 Oeste 26 Oeste 0 1015 -2.2 48
2019-02-05 14:00:00 17.7 9 Oeste 21 Norte 0 1015.4 -1.9 50
2019-02-05 13:00:00 16.2 8 Oeste 21 Oeste 0 1016.3 -0.8 54
2019-02-05 12:00:00 14.5 8 Oeste 33 Oeste 0 1017.2 0.1 58
2019-02-05 11:00:00 12.9 6 Nordeste 13 Noroeste 0 1017.3 0.3 58
2019-02-05 10:00:00 9.6 3 Nordeste 9 Este 0 1017.1 0.5 65
2019-02-05 09:00:00 5.4 5 Norte 9 Norte 0 1017.1 0.5 82
2019-02-05 08:00:00 4.2 8 Norte 15 Norte 0 1017 0.5 82
2019-02-05 07:00:00 6.3 11 Norte 18 Norte 0 1016.6 -0.2 74
2019-02-05 06:00:00 6.1 7 Norte 13 Norte 0 1016.6 -0.4 77
2019-02-05 05:00:00 5.7 3 Norte 9 Norte 0 1016.5 -0.5 80
2019-02-05 04:00:00 5.6 4 Norte 11 Este 0 1016.8 -0.7 79
2019-02-05 03:00:00 6.8 0 Calma 13 Norte 0 1017 -0.5 74
2019-02-05 02:00:00 7.1 11 Norte 13 Norte 0 1017 -0.5 72
2019-02-05 01:00:00 7.4 10 Norte 11 Norte 0 1017.5 -0.2 70
2019-02-05 00:00:00 7.7 12 Norte 15 Norte 0 1017.5 0 68
2019-02-04 23:00:00 7.2 11 Norte 17 Norte 0 1017.5 0 69
2019-02-04 22:00:00 6.8 12 Norte -- -- 0 1017.7 0.5 72
2019-02-04 21:00:00 6.3 6 Norte 13 Noroeste 0 1017.5 0.5 75
2019-02-04 20:00:00 5.8 9 Norte 11 Norte 0 1017.5 1.1 77
2019-02-04 19:00:00 7.1 3 Noroeste 13 Sur 0 1017.2 1 72
2019-02-04 18:00:00 9.6 11 Sur 21 Sudoeste 0 1017 1.2 62
2019-02-04 17:00:00 12.5 8 Sur 21 Sudeste 0 1016.4 -0.1 45
2019-02-04 16:00:00 12.8 11 Sudeste 22 Sur 0 1016.2 -0.7 44
2019-02-04 15:00:00 13.4 15 Sudeste 24 Sudeste 0 1015.8 -1.3 39
2019-02-04 14:00:00 12.7 6 Sur 21 Sudeste 0 1016.5 -0.6 36
2019-02-04 13:00:00 12.2 10 Sudeste 17 Sudeste 0 1016.9 0.2 32
2019-02-04 12:00:00 10.7 4 Este 15 Este 0 1017.1 1.4 35
2019-02-04 11:00:00 9.4 6 Este 18 Sudeste 0 1017.1 2.1 40
2019-02-04 10:00:00 7.8 13 Sudeste 18 Este 0 1016.7 2.1 39
2019-02-04 09:00:00 4.8 12 Sudeste 22 Noroeste 0 1015.7 1.4 51
2019-02-04 08:00:00 5.1 21 Noroeste 45 Noroeste 0 1015 1 48
2019-02-04 07:00:00 5.2 27 Noroeste 39 Noroeste 0 1014.6 0.6 44
2019-02-04 06:00:00 6 7 Noroeste 45 Oeste 0 1014.3 0.4 32
2019-02-04 05:00:00 6.3 29 Noroeste 46 Oeste 0 1014 0.5 37
2019-02-04 04:00:00 5.6 26 Oeste 46 Oeste 0 1014 0.7 41
2019-02-04 03:00:00 6.1 36 Noroeste 59 Noroeste 0 1013.9 0.3 37
2019-02-04 02:00:00 6.3 17 Noroeste 37 Oeste 0 1013.5 0.3 33
2019-02-04 01:00:00 5.9 24 Oeste 42 Noroeste 0 1013.3 0 33
2019-02-04 00:00:00 6 22 Oeste 42 Oeste 0 1013.6 1.4 30
2019-02-03 23:00:00 6.5 28 Oeste 45 Oeste 0 1013.2 1.7 27
2019-02-03 22:00:00 7.3 23 Oeste 39 Noroeste 0 1013.3 2.3 26
2019-02-03 21:00:00 7.7 25 Oeste 39 Noroeste 0 1012.2 2.2 26
2019-02-03 20:00:00 7.3 14 Oeste 30 Oeste 0 1011.5 2.2 28
2019-02-03 19:00:00 8.5 16 Oeste 42 Norte 0 1011 2.4 26
2019-02-03 18:00:00 10.2 24 Norte 41 Norte 0 1010 2.1 22
2019-02-03 17:00:00 11.5 34 Norte 54 Norte 0 1009.3 1.9 19
2019-02-03 16:00:00 12.4 25 Noroeste 59 Noroeste 0 1008.6 1.3 19
2019-02-03 15:00:00 12.4 33 Noroeste 58 Noroeste 0 1007.9 0.8 18
2019-02-03 14:00:00 12.2 30 Noroeste 61 Noroeste 0 1007.4 0.8 19
2019-02-03 13:00:00 11.3 37 Noroeste 55 Noroeste 0 1007.3 1.3 21
2019-02-03 12:00:00 10.6 30 Noroeste 54 Norte 0 1007.1 1.8 20
2019-02-03 11:00:00 9.2 23 Noroeste 46 Oeste 0 1006.6 2.7 24
2019-02-03 10:00:00 7.8 25 Noroeste 46 Noroeste 0 1006 2.2 25
2019-02-03 09:00:00 6.1 28 Noroeste 45 Noroeste 0 1005.3 2.4 31
2019-02-03 08:00:00 5.4 33 Noroeste 54 Oeste 0 1003.9 2.1 32
2019-02-03 07:00:00 5.4 25 Oeste 41 Oeste 0 1003.8 2.6 36
2019-02-03 06:00:00 5 23 Oeste 35 Oeste 0 1002.9 1.7 44
2019-02-03 05:00:00 4.8 17 Oeste 35 Oeste 0 1001.8 1.2 49
2019-02-03 04:00:00 5 26 Oeste 45 Noroeste 0 1001.2 0.9 52
2019-02-03 03:00:00 5.1 21 Noroeste 48 Oeste 0 1001.2 1.3 55
2019-02-03 02:00:00 5.4 28 Oeste 42 Oeste 0 1000.6 1.4 57
2019-02-03 01:00:00 5.7 28 Noroeste 54 Noroeste 0 1000.3 2.9 57
2019-02-03 00:00:00 6 25 Noroeste 52 Noroeste 0 999.9 2.7 54
2019-02-02 23:00:00 6.7 34 Noroeste 61 Noroeste 0 999.2 2.3 47
2019-02-02 22:00:00 7 33 Noroeste 67 Oeste 0 997.4 2 45
2019-02-02 21:00:00 7.2 40 Noroeste 63 Noroeste 0 997.2 3.1 45
2019-02-02 20:00:00 7.8 40 Oeste 61 Noroeste 0 996.9 4.7 44
2019-02-02 19:00:00 8.9 42 Oeste 63 Oeste 0 995.4 2.9 45
2019-02-02 18:00:00 9 41 Oeste 78 Oeste 0 994.1 2.9 48
2019-02-02 17:00:00 10.6 57 Oeste 76 Oeste 0 992.2 2.4 47
2019-02-02 16:00:00 11.4 35 Oeste 68 Oeste 0 992.5 2.3 48
2019-02-02 15:00:00 12.1 31 Oeste 61 Oeste 0 991.2 1.6 49
2019-02-02 14:00:00 11.3 38 Oeste 61 Oeste 0 989.8 1.1 53
2019-02-02 13:00:00 10 19 Noroeste 55 Noroeste 0 990.2 3.2 58
2019-02-02 12:00:00 9.7 37 Oeste 54 Oeste 0 989.6 4.2 61
2019-02-02 11:00:00 8.9 18 Noroeste 37 Noroeste 0 988.7 3.1 65
2019-02-02 10:00:00 8.8 17 Noroeste 58 Noroeste 0 987 2.3 63
2019-02-02 09:00:00 8.4 35 Noroeste 58 Noroeste 0 985.4 1.4 64
2019-02-02 08:00:00 8.2 19 Sudoeste 41 Oeste 0 985.6 1.7 65
2019-02-02 07:00:00 7.8 20 Oeste 48 Oeste 0 984.7 0.6 64
2019-02-02 06:00:00 7.3 23 Sudoeste 48 Sudoeste 0 984 0.1 68
2019-02-02 05:00:00 6.3 10 Sudoeste 37 Oeste 0 983.9 0.3 71
2019-02-02 04:00:00 7.9 24 Oeste 46 Oeste 0 984.1 1.4 64
2019-02-02 03:00:00 7.8 17 Oeste 26 Oeste 0 983.9 2 63
2019-02-02 02:00:00 8.6 15 Oeste 46 Oeste 0 983.6 2.5 60
2019-02-02 01:00:00 9.3 12 Oeste 54 Oeste 0 982.7 1.4 55
2019-02-02 00:00:00 9.1 24 Oeste 59 Noroeste 0 981.9 0.5 59
2019-02-01 23:00:00 8.4 32 Oeste 68 Noroeste 0.5 981.1 -0.1 67
2019-02-01 22:00:00 9.2 45 Oeste 61 Noroeste 0.1 981.3 0.4 76
2019-02-01 21:00:00 9.2 9 Oeste 17 Oeste 0 981.4 0.7 79
2019-02-01 20:00:00 8.6 10 Oeste 13 Oeste 0 981.2 0.5 73
2019-02-01 19:00:00 10.7 5 Sur 11 Sur 0 980.9 0.3 60
2019-02-01 18:00:00 13.8 8 Sur 28 Oeste 0 980.7 -0.1 54
2019-02-01 17:00:00 16.2 18 Oeste 41 Sudoeste 0 980.7 -0.6 40
2019-02-01 16:00:00 16.6 22 Oeste 42 Oeste 0 980.6 -0.8 45
2019-02-01 15:00:00 15 13 Sudoeste 54 Oeste 0 980.8 -1.2 55
2019-02-01 14:00:00 15.3 29 Oeste 55 Oeste 0 981.3 -1.3 51
2019-02-01 13:00:00 15.9 31 Oeste 45 Oeste 0 981.4 -1.3 51
2019-02-01 12:00:00 14.1 11 Oeste 28 Oeste 0 982 -0.4 55
2019-02-01 11:00:00 12.8 5 Noroeste 32 Norte 0 982.6 1.1 68
2019-02-01 10:00:00 11.8 14 Norte 22 Norte 0.3 982.7 1.5 79
2019-02-01 09:00:00 11.9 10 Noroeste 24 Noroeste 0.4 982.4 0.7 83
2019-02-01 08:00:00 10.9 13 Norte 22 Norte 0 981.5 -1.1 90
2019-02-01 07:00:00 10.4 10 Norte 21 Sudoeste 0 981.2 -2.5 90
2019-02-01 06:00:00 12.4 21 Sudoeste 33 Sudoeste 0 981.7 -3.1 87
2019-02-01 05:00:00 10 4 Norte 13 Norte 0 982.6 -2.7 89
2019-02-01 04:00:00 9.4 7 Norte 11 Noroeste 0 983.7 -2.5 91
2019-02-01 03:00:00 9.5 2 Noroeste 11 Norte 0 984.8 -1.7 88
2019-02-01 02:00:00 9.5 9 Nordeste 11 Norte 0 985.3 -1.9 89
2019-02-01 01:00:00 9 9 Norte 15 Norte 0 986.2 -1.6 91
2019-02-01 00:00:00 8.8 10 Norte 13 Este 0 986.5 -1.6 92
2019-01-31 23:00:00 9.9 4 Norte 17 Noroeste 0 987.2 -1.1 86
2019-01-31 22:00:00 10.1 11 Noroeste 13 Noroeste 0 987.8 -0.5 93
2019-01-31 21:00:00 9.8 5 Sudoeste 11 Sudeste 0 988.1 -0.4 89
2019-01-31 20:00:00 11 8 Este 11 Sudeste 0 988.3 -0.6 82
2019-01-31 19:00:00 12.5 0 Calma 8 Oeste 0 988.3 -0.4 74
2019-01-31 18:00:00 14.5 7 Sudoeste 11 Oeste 0 988.5 -0.4 68
2019-01-31 17:00:00 15.8 10 Sudoeste 18 Sur 0 988.9 -0.1 63
2019-01-31 16:00:00 17.7 14 Sur 22 Sudoeste 0 988.7 -0.7 56
2019-01-31 15:00:00 15.6 16 Sur 26 Sur 0 988.9 -1.8 60
2019-01-31 14:00:00 16.2 17 Sur 26 Sur 0 989 -1.7 57
2019-01-31 13:00:00 14.7 12 Sur 21 Sur 0 989.4 -1.1 59
2019-01-31 12:00:00 13 8 Sudoeste 15 Sudoeste 0 990.7 0.3 62
2019-01-31 11:00:00 11.9 9 Sudoeste 15 Sudoeste 0 990.7 0 62
2019-01-31 10:00:00 10.2 4 Sudoeste 15 Noroeste 0 990.5 -0.4 84
2019-01-31 09:00:00 8.7 14 Noroeste 21 Noroeste 0 990.4 -0.7 88
2019-01-31 08:00:00 7.8 9 Noroeste 13 Noroeste 0 990.7 -1 89
2019-01-31 07:00:00 7.6 9 Oeste 13 Sudoeste 0 990.9 -1.8 86
2019-01-31 06:00:00 6.5 11 Oeste 13 Oeste 0 991.1 -2.5 89
2019-01-31 05:00:00 6.9 2 Norte 11 Norte 0 991.7 -2.9 82
2019-01-31 04:00:00 7.1 8 Norte 11 Norte 0 992.7 -2.7 81
2019-01-31 03:00:00 7.8 9 Noroeste 22 Oeste 0 993.6 -2.3 72
2019-01-31 02:00:00 8.9 15 Oeste 33 Oeste 0 994.6 -2.1 61
2019-01-31 01:00:00 3.7 7 Sudoeste 21 Sudoeste 0 995.4 -1.6 77
2019-01-31 00:00:00 4.2 5 Norte 9 Norte 0 995.9 -1.6 74
2019-01-30 23:00:00 4 7 Nordeste 17 Noroeste 0 996.7 -1.1 71
2019-01-30 22:00:00 4.2 12 Noroeste 15 Noroeste 0 997 -0.8 72
2019-01-30 21:00:00 7 7 Sudoeste 9 Sudoeste 0 997.5 -0.2 57
2019-01-30 20:00:00 7.5 5 Oeste 18 Sudoeste 0 997.8 -0.1 54
2019-01-30 19:00:00 8.6 12 Sur 33 Noroeste 0 997.8 -0.6 53
2019-01-30 18:00:00 11.3 24 Oeste 35 Oeste 0 997.7 -0.7 46
2019-01-30 17:00:00 12.4 18 Oeste 46 Noroeste 0 997.9 -0.3 44
2019-01-30 16:00:00 13.1 26 Oeste 54 Oeste 0 998.4 0.5 42
2019-01-30 15:00:00 13.3 34 Oeste 65 Oeste 0 998.4 0.1 41
2019-01-30 14:00:00 13.1 33 Oeste 72 Noroeste 0 998.2 -1.3 43
2019-01-30 13:00:00 11.6 36 Noroeste 80 Oeste 0 997.9 -1.3 47
2019-01-30 12:00:00 12 44 Oeste 68 Oeste 0 998.3 0.2 46
2019-01-30 11:00:00 11.8 10 Norte 28 Noroeste 0 999.5 2.5 46
2019-01-30 10:00:00 10.2 23 Oeste 59 Oeste 0 999.2 2.9 48
2019-01-30 09:00:00 9.2 30 Noroeste 67 Noroeste 0 998.1 0.7 49
2019-01-30 08:00:00 8.4 36 Noroeste 72 Noroeste 0 997 -0.2 54
2019-01-30 07:00:00 8.7 49 Noroeste 78 Noroeste 0 996.3 -1 51
2019-01-30 06:00:00 8.1 46 Noroeste 78 Oeste 0 997.4 1 56
2019-01-30 05:00:00 8 52 Oeste 78 Oeste 0 997.2 0.9 58
2019-01-30 04:00:00 8.3 52 Oeste 78 Oeste 0 997.3 1.4 57
2019-01-30 03:00:00 8.7 55 Oeste 80 Oeste 0 996.4 1 56
2019-01-30 02:00:00 9 50 Oeste 72 Oeste 0 996.3 1.9 56
2019-01-30 01:00:00 9.3 55 Oeste 84 Oeste 0 995.9 0.8 57
2019-01-30 00:00:00 10.1 51 Oeste 87 Oeste 0 995.4 -0.3 58
2019-01-29 23:00:00 10.1 55 Oeste 85 Oeste 0 994.4 -2 62
2019-01-29 22:00:00 9.6 39 Oeste 61 Oeste 0 995.1 -1.6 71
2019-01-29 21:00:00 7.9 22 Sudoeste 37 Sudoeste 0 995.7 -1.8 85
2019-01-29 20:00:00 6.5 18 Sudoeste 24 Sudoeste 0.2 996.4 -2.1 95
2019-01-29 19:00:00 7.6 7 Sudoeste 13 Oeste 0.1 996.7 -2 91
2019-01-29 18:00:00 7.9 9 Sudoeste 18 Oeste 0.3 997.5 -2.2 91
2019-01-29 17:00:00 9.3 16 Oeste 33 Oeste 0.1 998.5 -2.2 77
2019-01-29 16:00:00 11 13 Sudoeste 21 Sudoeste 0 998.7 -2.9 58
2019-01-29 15:00:00 10.5 10 Sudoeste 22 Sudoeste 0 999.7 -3.2 60
2019-01-29 14:00:00 10.4 13 Oeste 26 Oeste 0 1000.7 -2 64
2019-01-29 13:00:00 9.8 19 Oeste 26 Oeste 0 1001.6 -0.9 65
2019-01-29 12:00:00 9 7 Sudoeste 17 Sudoeste 0 1002.9 0.6 70
2019-01-29 11:00:00 9 13 Sudeste 22 Sudeste 0 1002.7 0.4 68
2019-01-29 10:00:00 9.1 5 Este 32 Noroeste 0 1002.5 -0.4 62
2019-01-29 09:00:00 8.9 19 Oeste 35 Norte 0 1002.3 -0.2 61
2019-01-29 08:00:00 8.6 13 Noroeste 41 Noroeste 0 1002.3 0.1 61
2019-01-29 07:00:00 7.8 18 Oeste 50 Oeste 0 1002.9 0.7 65
2019-01-29 06:00:00 8 16 Oeste 28 Noroeste 0 1002.5 -0.4 61
2019-01-29 05:00:00 8 19 Oeste 32 Noroeste 0 1002.2 -0.7 62
2019-01-29 04:00:00 8.6 20 Norte 39 Norte 0 1002.2 -0.1 60
2019-01-29 03:00:00 9.1 13 Norte 32 Norte 0 1002.9 0.5 61
2019-01-29 02:00:00 9 10 Norte -- -- -- 1002.9 0.3 61
2019-01-29 01:00:00 9.4 33 Noroeste 63 Noroeste 0 1002.3 -0.1 61
2019-01-29 00:00:00 9.6 35 Oeste 52 Noroeste 0 1002.4 0.8 61
2019-01-28 23:00:00 9.7 25 Oeste 48 Oeste 0 1002.6 1.4 61
2019-01-28 22:00:00 9.9 23 Oeste 45 Oeste 0 1002.4 2 59
2019-01-28 21:00:00 10.1 23 Oeste 45 Oeste 0 1001.6 2 57
2019-01-28 20:00:00 10.8 24 Oeste 48 Noroeste 0 1001.2 3 57
2019-01-28 19:00:00 11.7 30 Oeste 46 Oeste 0 1000.4 2.5 52
2019-01-28 18:00:00 12.6 28 Noroeste 59 Noroeste 0 999.6 2.2 50
2019-01-28 17:00:00 14 37 Noroeste 63 Noroeste 0 998.2 1.7 45
2019-01-28 16:00:00 15 33 Noroeste 68 Noroeste 0 997.9 0.6 44
2019-01-28 15:00:00 15.2 40 Noroeste 71 Noroeste 0 997.4 -0.6 44
2019-01-28 14:00:00 15.3 50 Oeste 76 Oeste 0 996.5 -1.2 42
2019-01-28 13:00:00 14.7 37 Oeste 63 Oeste 0 997.3 -0.5 45
2019-01-28 12:00:00 12.8 40 Oeste 84 Oeste 0 998 0.3 49
2019-01-28 11:00:00 11.4 51 Noroeste 76 Noroeste 0 997.7 -0.5 53
2019-01-28 10:00:00 9.8 45 Oeste 87 Oeste 0 997.8 -2.1 54
2019-01-28 09:00:00 9 48 Oeste 80 Oeste 0 997.7 -2.8 57
2019-01-28 08:00:00 9.4 50 Oeste 72 Oeste 0 998.2 -3.1 59
2019-01-28 07:00:00 8.2 25 Noroeste 59 Noroeste 0 999.9 -2.1 60
2019-01-28 06:00:00 7.7 16 Oeste 33 Oeste 0 1000.5 -1.6 60
2019-01-28 05:00:00 7.4 7 Oeste 35 Noroeste 0 1001.3 -0.7 59
2019-01-28 04:00:00 7.5 18 Oeste 39 Oeste 0 1002 -0.1 61
2019-01-28 03:00:00 8.1 33 Oeste 52 Oeste 0 1002.1 0.5 58
2019-01-28 02:00:00 8 28 Oeste -- -- -- 1002 0.9 59
2019-01-28 01:00:00 8.5 33 Oeste 54 Oeste 0 1002.1 1.1 56
2019-01-28 00:00:00 8.6 31 Oeste 55 Oeste 0 1001.6 1.6 56
2019-01-27 23:00:00 9.1 35 Oeste 61 Oeste 0 1001.1 0.8 52
2019-01-27 22:00:00 9.2 31 Oeste 65 Oeste 0 1001 1.9 52
2019-01-27 21:00:00 9.8 41 Noroeste 80 Noroeste 0 1000 1 46
2019-01-27 20:00:00 10.1 50 Oeste 82 Noroeste 0 1000.3 2.1 48
2019-01-27 19:00:00 10.5 50 Oeste 74 Oeste 0 999.1 1.1 50
2019-01-27 18:00:00 12 30 Oeste 54 Oeste 0 999 1.8 43
2019-01-27 17:00:00 13.9 38 Oeste 61 Oeste 0 998.2 1.3 40
2019-01-27 16:00:00 15.2 25 Noroeste 59 Noroeste 0 998 1 36
2019-01-27 15:00:00 15.2 43 Oeste 67 Oeste 0 997.2 -0.9 38
2019-01-27 14:00:00 15.5 48 Oeste 93 Oeste 0 996.9 -1.4 37
2019-01-27 13:00:00 14.8 65 Oeste 87 Oeste 0 997 -1.9 43
2019-01-27 12:00:00 14.8 37 Oeste 67 Oeste 0 998.1 -0.8 44
2019-01-27 11:00:00 14.3 19 Oeste 37 Oeste 0 998.3 -0.1 49
2019-01-27 10:00:00 11 18 Oeste 28 Oeste 0 998.9 0.4 63
2019-01-27 09:00:00 10.2 4 Sudoeste 22 Sur 0 998.9 0.2 64
2019-01-27 08:00:00 9.4 10 Sur 18 Sur 0 998.4 -1.1 68
2019-01-27 07:00:00 9.8 8 Sudeste 24 Sudoeste 0 998.5 -1.8 65
2019-01-27 06:00:00 11.2 19 Sudoeste 32 Oeste 0 998.7 -2.5 61
2019-01-27 05:00:00 9.8 22 Sudoeste 33 Oeste 0 999.5 -2.1 69
2019-01-27 04:00:00 9.9 4 Oeste 18 Noroeste 0 1000.3 -2.2 65
2019-01-27 03:00:00 5.8 4 Sudeste 17 Noroeste 0 1001.2 -2.1 83
2019-01-27 02:00:00 6.4 4 Norte -- -- -- 1001.6 -2.2 82
2019-01-27 01:00:00 4.7 5 Nordeste 9 Nordeste 0 1002.5 -1.7 90
2019-01-27 00:00:00 3.9 7 Nordeste 13 Norte 0 1003.3 -1.4 93
2019-01-26 23:00:00 5.3 9 Norte 15 Norte 0 1003.8 -1.4 88
2019-01-26 22:00:00 6 13 Norte 15 Norte 0 1004.2 -1.3 88
2019-01-26 21:00:00 7.2 7 Norte 9 Norte 0 1004.7 -1.2 93
2019-01-26 20:00:00 9.6 0 Calma 18 Sudoeste 0 1005.2 -1.2 95
2019-01-26 19:00:00 10.8 13 Sudoeste 26 Sudoeste 0 1005.5 -1.2 92
2019-01-26 18:00:00 12.4 18 Sudoeste 28 Sur 0 1005.9 -1 80
2019-01-26 17:00:00 15.5 18 Sudoeste 33 Sudoeste 0 1006.4 -1.2 54
2019-01-26 16:00:00 16.9 25 Oeste 33 Oeste 0 1006.7 -1.8 48
2019-01-26 15:00:00 17.2 23 Oeste 33 Oeste 0 1006.9 -2.2 47
2019-01-26 14:00:00 17.3 22 Oeste 33 Oeste 0 1007.6 -1.5 47
2019-01-26 13:00:00 16.3 25 Oeste 39 Oeste 0 1008.5 -0.6 49
2019-01-26 12:00:00 15.2 23 Oeste 30 Oeste 0 1009.1 0.3 53
2019-01-26 11:00:00 13.5 23 Oeste 37 Oeste 0 1009.1 0.9 59
2019-01-26 10:00:00 11.4 4 Norte 17 Noroeste 0 1009.1 1.5 66
2019-01-26 09:00:00 10.5 10 Noroeste 35 Noroeste 0 1008.8 1.3 69
2019-01-26 08:00:00 10.6 34 Oeste 50 Oeste 0 1008.2 1.1 69
2019-01-26 07:00:00 10.2 31 Oeste 39 Oeste 0 1007.6 1.1 71
2019-01-26 06:00:00 11 23 Oeste 39 Oeste 0 1007.5 0.9 66
2019-01-26 05:00:00 10.9 28 Noroeste 65 Noroeste 0 1007.1 1 68
2019-01-26 04:00:00 10.9 43 Noroeste 63 Oeste 0 1006.5 0.7 69
2019-01-26 03:00:00 10.8 31 Oeste 55 Oeste 0 1006.6 1.1 70
2019-01-26 02:00:00 11.1 30 Oeste -- -- -- 1006.1 0.6 67
2019-01-26 01:00:00 11.5 23 Oeste 63 Noroeste 0 1005.8 1.6 63
2019-01-26 00:00:00 12.3 37 Noroeste 58 Oeste 0 1005.5 1.5 60
2019-01-25 23:00:00 11.8 22 Noroeste 46 Noroeste 0 1005.5 2.5 63
2019-01-25 22:00:00 12.7 36 Noroeste 59 Oeste 0 1004.2 2 60
2019-01-25 21:00:00 13.3 39 Oeste 58 Oeste 0 1004 2.6 59
2019-01-25 20:00:00 14.1 31 Oeste 48 Oeste 0 1003 1.5 57
2019-01-25 19:00:00 15 28 Oeste 42 Oeste 0 1002.2 -- 54
2019-01-25 18:00:00 16 32 Oeste 48 Oeste 0 1001.4 0.4 52
2019-01-25 17:00:00 17.7 25 Oeste -- -- -- 1001.5 0.2 48
2019-01-25 16:00:00 -- -- -- -- -- -- -- -- --
2019-01-25 15:00:00 19.2 32 Oeste 48 Oeste 0 1001 -2.3 38
2019-01-25 14:00:00 18.5 28 Oeste 45 Oeste 0 1001.3 -1.9 40
2019-01-25 13:00:00 16.4 24 Oeste 42 Oeste 0 1002 -1.3 50
2019-01-25 12:00:00 13.9 34 Oeste 48 Oeste 0 1003.3 0.3 58
2019-01-25 11:00:00 12.4 23 Oeste 35 Oeste 0 1003.2 0.7 63
2019-01-25 10:00:00 7.4 0 Calma 13 Noroeste 0 1003.3 1.3 70
2019-01-25 09:00:00 1.9 2 Oeste 9 Nordeste 0 1003 1.2 76
2019-01-25 08:00:00 0.8 0 Calma 9 Oeste 0 1002.5 0.3 74
2019-01-25 07:00:00 2 4 Noroeste 18 Noroeste 0 1002 0.2 64
2019-01-25 06:00:00 1.3 11 Norte 13 Noroeste 0 1001.8 -0.2 68
2019-01-25 05:00:00 2.8 7 Nordeste 32 Oeste 0 1002.2 0.5 62
2019-01-25 04:00:00 5 20 Oeste 28 Oeste 0 1001.8 0.3 58
2019-01-25 03:00:00 3.5 5 Noroeste 18 Oeste 0 1002 0 61
2019-01-25 02:00:00 3.7 5 Noroeste -- -- -- 1001.7 0.3 56
2019-01-25 01:00:00 3.9 5 Sudoeste 18 Noroeste 0 1001.5 0.7 51
2019-01-25 00:00:00 4.8 8 Sur 15 Sur 0 1002 1.5 44
2019-01-24 23:00:00 6.1 9 Sudoeste 21 Norte 0 1001.4 1.3 32
2019-01-24 22:00:00 8 13 Norte 39 Noroeste 0 1000.8 1.4 20
2019-01-24 21:00:00 7.2 23 Oeste 32 Norte 0 1000.5 1.9 24
2019-01-24 20:00:00 7.1 13 Oeste 42 Norte 0 1000.1 3.2 25
2019-01-24 19:00:00 9.7 19 Noroeste 41 Oeste 0 999.4 2.2 18
2019-01-24 18:00:00 9.9 8 Norte 65 Noroeste 0 998.6 2.9 18
2019-01-24 17:00:00 10.6 31 Noroeste 76 Norte 0 996.9 1 18
2019-01-24 16:00:00 11.5 48 Noroeste 82 Noroeste 0 997.2 1.6 18
2019-01-24 15:00:00 11.8 47 Noroeste 76 Noroeste 0 995.7 -0.1 21
2019-01-24 14:00:00 12.2 38 Norte 68 Noroeste 0 995.9 0.1 22
2019-01-24 13:00:00 11.1 43 Noroeste 74 Noroeste 0 995.6 0.9 26
2019-01-24 12:00:00 10.5 42 Noroeste 68 Noroeste 0 995.8 1.5 25
2019-01-24 11:00:00 9.6 39 Noroeste 61 Norte 0 995.8 2.2 27
2019-01-24 10:00:00 8.4 42 Noroeste 78 Norte 0 994.7 1.5 28
2019-01-24 09:00:00 7.8 47 Noroeste 72 Norte 0 994.3 1.1 28
2019-01-24 08:00:00 7.1 39 Noroeste 65 Noroeste 0 993.6 1.8 31
2019-01-24 07:00:00 7.2 37 Noroeste 65 Noroeste 0 993.2 1.4 34
2019-01-24 06:00:00 7.2 30 Noroeste 54 Noroeste 0 993.2 1.2 41
2019-01-24 05:00:00 6.7 29 Noroeste 48 Noroeste 0 991.8 -0.2 55
2019-01-24 04:00:00 7.2 28 Noroeste 50 Noroeste 0 991.8 0.2 56
2019-01-24 03:00:00 7.8 29 Noroeste 52 Noroeste 0 992 1 58
2019-01-24 02:00:00 7.7 30 Noroeste 52 Noroeste 0 992 1.1 61
2019-01-24 01:00:00 8.1 20 Noroeste 39 Noroeste 0 991.6 1.1 65
2019-01-24 00:00:00 8 13 Noroeste 35 Noroeste 0 991 1.2 65
2019-01-23 23:00:00 8.9 19 Noroeste 35 Noroeste 0 990.9 1.8 63
2019-01-23 22:00:00 9.4 26 Noroeste 50 Noroeste 0 990.5 2.3 61
2019-01-23 21:00:00 10.3 32 Noroeste 55 Noroeste 0 989.8 2.9 58
2019-01-23 20:00:00 10.6 29 Noroeste 58 Noroeste 0 989.1 2 57
2019-01-23 19:00:00 11.1 40 Noroeste 67 Noroeste 0 988.2 1.5 54
2019-01-23 18:00:00 11.7 38 Noroeste 67 Noroeste 0 986.9 0.5 52
2019-01-23 17:00:00 12.3 43 Noroeste 68 Noroeste 0 987.1 -0.1 52
2019-01-23 16:00:00 13 38 Noroeste 63 Noroeste 0 986.7 -0.7 51
2019-01-23 15:00:00 13.5 41 Oeste 67 Noroeste 0 986.4 -1.2 51
2019-01-23 14:00:00 12.8 33 Oeste 59 Oeste 0 987.2 -0.9 58
2019-01-23 13:00:00 11.7 50 Oeste 78 Oeste 0 987.4 -1.5 63
2019-01-23 12:00:00 11.3 48 Noroeste 91 Noroeste 0 987.6 -2.7 66
2019-01-23 11:00:00 10.6 27 Oeste 54 Oeste 0 988.1 -2.7 69
2019-01-23 10:00:00 8.6 13 Oeste 26 Oeste 0 988.9 -2.8 79
2019-01-23 09:00:00 7.4 14 Sudoeste 30 Oeste 0 990.3 -2.4 82
2019-01-23 08:00:00 8.5 14 Sudoeste 46 Oeste 0 990.8 -2.8 68
2019-01-23 07:00:00 8.1 21 Oeste 32 Oeste 0 991.7 -2.5 69
2019-01-23 06:00:00 8 19 Noroeste 41 Noroeste 0 992.7 -2.5 68
2019-01-23 05:00:00 7.9 25 Oeste 41 Oeste 0 993.6 -2.3 69
2019-01-23 04:00:00 8.1 27 Oeste 39 Oeste 0 994.2 -2.4 67
2019-01-23 03:00:00 7 7 Nordeste 22 Noroeste 0 995.2 -1.5 70
2019-01-23 02:00:00 7.6 5 Oeste 26 Norte 0 995.9 -1.1 66
2019-01-23 01:00:00 7.3 17 Noroeste 54 Oeste 0 996.6 -0.6 67
2019-01-23 00:00:00 7.8 14 Noroeste 48 Noroeste 0 996.7 -0.7 63
2019-01-22 23:00:00 7.8 12 Noroeste 33 Noroeste 0 997 -0.9 63
2019-01-22 22:00:00 8.3 18 Noroeste 45 Noroeste 0 997.2 -1.3 62
2019-01-22 21:00:00 8.6 24 Noroeste 42 Oeste 0 997.4 -1.6 64
2019-01-22 20:00:00 8.7 18 Oeste 35 Noroeste 0 997.9 -1.6 65
2019-01-22 19:00:00 8.6 14 Oeste 33 Oeste 0 998.5 -1.4 68
2019-01-22 18:00:00 8.5 17 Oeste 35 Oeste 0 999 -1.5 69
2019-01-22 17:00:00 9.3 18 Oeste 39 Oeste 0 999.5 -1.7 65
2019-01-22 16:00:00 10.6 7 Oeste 46 Noroeste 0 999.9 -2.7 54
2019-01-22 15:00:00 11.5 26 Noroeste 42 Noroeste 0 1000.5 -3.5 47
2019-01-22 14:00:00 11.4 24 Oeste 41 Oeste 0 1001.2 -3.5 46
2019-01-22 13:00:00 10.6 6 Norte 15 Noroeste 0 1002.6 -2.4 45
2019-01-22 12:00:00 9.6 8 Nordeste 21 Este 0 1004 -1.3 49
2019-01-22 11:00:00 7.9 11 Nordeste 37 Oeste 0 1004.7 -0.6 53
2019-01-22 10:00:00 5.9 5 Noroeste 26 Norte 0 1005 -0.4 57
2019-01-22 09:00:00 4.3 10 Norte 35 Noroeste 0 1005.3 -0.3 63
2019-01-22 08:00:00 3.6 11 Noroeste 30 Noroeste 0 1005.3 -0.8 70
2019-01-22 07:00:00 3.3 19 Oeste 33 Noroeste 0 1005.4 -1.3 73
2019-01-22 06:00:00 2 10 Oeste 26 Oeste 0 1005.6 -1.6 72
2019-01-22 05:00:00 3.2 12 Noroeste 33 Oeste 0 1006.1 -1.6 66
2019-01-22 04:00:00 4.1 16 Oeste 32 Oeste 0 1006.7 -1.3 61
2019-01-22 03:00:00 4.5 18 Oeste 30 Oeste 0 1007.2 -1 61
2019-01-22 02:00:00 4.9 21 Oeste 39 Noroeste 0 1007.7 -0.7 62
2019-01-22 01:00:00 5.7 31 Oeste 52 Oeste 0 1008 -0.1 61
2019-01-22 00:00:00 6 28 Oeste 42 Oeste 0 1008.2 0.5 63
2019-01-21 23:00:00 6.3 14 Noroeste 30 Oeste 0 1008.4 0.9 61
2019-01-21 22:00:00 7.2 17 Noroeste 42 Oeste 0 1008.1 0.9 60
2019-01-21 21:00:00 7.9 24 Noroeste 33 Oeste 0 1007.7 0.7 60
2019-01-21 20:00:00 7.5 9 Oeste 24 Oeste 0 1007.5 0.4 68
2019-01-21 19:00:00 8.6 4 Oeste 11 Oeste 0 1007.2 0 58
2019-01-21 18:00:00 10.8 5 Noroeste 17 Oeste 0 1007 0 46
2019-01-21 17:00:00 12.5 11 Oeste 24 Oeste 0 1007.1 -0.2 44
2019-01-21 16:00:00 12.8 15 Oeste 30 Noroeste 0 1007.2 -0.4 45
2019-01-21 15:00:00 12.8 23 Oeste 33 Oeste 0 1007 -1.2 52
2019-01-21 14:00:00 12.3 20 Oeste 30 Oeste 0 1007.3 -0.7 56
2019-01-21 13:00:00 11.4 20 Oeste 28 Oeste 0 1007.6 0 59
2019-01-21 12:00:00 10.6 3 Este 15 Nordeste 0 1008.2 1.2 63
2019-01-21 11:00:00 9.3 10 Nordeste 17 Sudeste 0 1008 1 68
2019-01-21 10:00:00 6.3 7 Este 26 Oeste 0 1007.6 0.7 83
2019-01-21 09:00:00 5.7 17 Oeste 26 Oeste 0 1007 0.6 80
2019-01-21 08:00:00 4.1 15 Oeste 24 Noroeste 0 1007 0.5 87
2019-01-21 07:00:00 4.6 10 Noroeste 22 Oeste 0 1006.9 0.6 84
2019-01-21 06:00:00 5.2 14 Noroeste 21 Oeste 0 1006.4 0 86
2019-01-21 05:00:00 4.3 6 Noroeste 11 Oeste 0 1006.5 0.2 94
2019-01-21 04:00:00 3.9 5 Norte 9 Norte 0 1006.3 0 97
2019-01-21 03:00:00 2.9 10 Nordeste 11 Este 0 1006.4 0.4 97
2019-01-21 02:00:00 5.8 8 Noroeste 13 Noroeste 0 1006.3 1 90
2019-01-21 01:00:00 4.8 11 Noroeste 13 Noroeste 0 1006.3 1.8 91
2019-01-21 00:00:00 5.1 11 Noroeste 13 Noroeste 0 1006 2.2 91
2019-01-20 23:00:00 5.5 12 Norte 18 Norte 0 1005.3 1.9 88
2019-01-20 22:00:00 4.8 14 Norte 21 Norte 0 1004.5 1.6 91
2019-01-20 21:00:00 4.4 13 Norte 24 Norte 0 1003.8 1.2 92
2019-01-20 20:00:00 4.2 4 Norte 17 Noroeste 0 1003.4 1.4 96
2019-01-20 19:00:00 5.8 10 Noroeste -- -- 0 1002.9 1.4 91
2019-01-20 18:00:00 8.9 5 Sur 5 Sur 0 1002.6 1.6 83
2019-01-20 17:00:00 9.6 3 Noroeste 11 Noroeste 0 1002 1.1 80
2019-01-20 16:00:00 10.2 6 Norte 18 Norte 0 1001.5 0.4 72
2019-01-20 15:00:00 10.2 12 Norte 28 Norte 0 1001 -0.2 69
2019-01-20 14:00:00 9.9 19 Norte 32 Norte 0 1000.9 0.2 72
2019-01-20 13:00:00 9.1 18 Norte 30 Norte 0 1001.1 1.1 80
2019-01-20 12:00:00 9.2 17 Norte 30 Norte 0 1001.2 1.8 78
2019-01-20 11:00:00 9.2 18 Norte 28 Norte 0 1000.7 1.7 79
2019-01-20 10:00:00 8.6 18 Norte 30 Norte 0 1000 1.5 83
2019-01-20 09:00:00 7.9 15 Norte 24 Norte 0 999.4 0.9 91
2019-01-20 08:00:00 6.8 8 Norte 9 Norte 0 999 0.3 100
2019-01-20 07:00:00 6.7 6 Nordeste 8 Nordeste 0 998.5 -0.8 99
2019-01-20 06:00:00 7.7 -- -- -- -- 0 998.5 -1.5 95
2019-01-20 05:00:00 7.8 12 Norte 18 Norte 0 998.7 -1.8 95
2019-01-20 04:00:00 7.7 14 Norte 22 Norte 0.1 999.3 -1.9 95
2019-01-20 03:00:00 7.3 15 Norte 21 Norte 0.4 1000 -1.8 94
2019-01-20 02:00:00 6.8 13 Norte 17 Norte 1 1000.5 -1.9 92
2019-01-20 01:00:00 7.5 12 Norte 18 Norte 0 1001.2 -1.6 81
2019-01-20 00:00:00 7.2 13 Norte 17 Norte 0 1001.8 -1.4 76
2019-01-19 23:00:00 6.7 8 Nordeste 13 Norte 0 1002.4 -1.1 79
2019-01-19 22:00:00 6.9 10 Norte 13 Norte 0 1002.8 -0.7 77
2019-01-19 21:00:00 6.5 7 Nordeste 11 Nordeste 0 1003.2 -0.2 78
2019-01-19 20:00:00 -- 11 Noroeste 13 Noroeste 0 1003.5 -0.3 --
2019-01-19 19:00:00 7.5 9 Oeste 13 Oeste 0 1003.5 -0.7 73
2019-01-19 18:00:00 9 6 Oeste 24 Oeste 0 1003.4 -1.3 64
2019-01-19 17:00:00 10.8 20 Oeste 26 Oeste 0 1003.8 -1.6 58
2019-01-19 16:00:00 12.3 9 Sudeste 18 Sur 0 1004.2 -2.2 56
2019-01-19 15:00:00 12.3 10 Sur 17 Sur 0 1004.7 -2.6 55
2019-01-19 14:00:00 11.8 3 Sudeste 13 Este 0 1005.4 -2 54
2019-01-19 13:00:00 10.9 6 Este 13 Este 0 1006.4 -0.7 56
2019-01-19 12:00:00 9.5 6 Nordeste -- -- -- 1007.3 0.4 61
2019-01-19 11:00:00 8 10 Nordeste 21 Norte 0 1007.4 0.9 67
2019-01-19 10:00:00 5.7 14 Norte 26 Norte 0 1007.1 0.8 77
2019-01-19 09:00:00 3.5 17 Norte 24 Norte 0 1006.9 1 84
2019-01-19 08:00:00 1.1 11 Norte 17 Norte 0 1006.5 0.4 91
2019-01-19 07:00:00 0.9 6 Norte 15 Noroeste 0 1006.3 -0.3 90
2019-01-19 06:00:00 1.4 10 Norte 15 Nordeste 0 1005.9 -0.8 90
2019-01-19 05:00:00 2.5 12 Norte 18 Norte 0 1006.1 -0.7 88
2019-01-19 04:00:00 2.5 3 Norte 15 Norte 0 1006.6 -0.7 88
2019-01-19 03:00:00 2.5 9 Norte 11 Norte 0 1006.7 -0.8 89
2019-01-19 02:00:00 3.7 4 Este 13 Norte 0 1006.8 -0.6 86
2019-01-19 01:00:00 5.5 9 Norte 15 Norte 0 1007.3 0.2 79
2019-01-19 00:00:00 5.3 6 Norte 11 Norte 0 1007.5 0.3 82